createdAt,value
2019-02-26T00:01:32.204Z,0.00
2019-02-26T00:04:01.724Z,-0.10
2019-02-26T00:06:31.212Z,-0.10
2019-02-26T00:09:03.191Z,-0.20
2019-02-26T00:11:33.410Z,-0.30
2019-02-26T00:14:03.036Z,-0.30
2019-02-26T00:16:39.745Z,-0.30
2019-02-26T00:19:07.521Z,-0.30
2019-02-26T00:21:38.329Z,-0.40
2019-02-26T00:24:09.917Z,-0.40
2019-02-26T00:26:40.695Z,-0.40
2019-02-26T00:29:10.083Z,-0.40
2019-02-26T00:31:39.586Z,-0.50
2019-02-26T00:34:10.780Z,-0.50
2019-02-26T00:36:40.180Z,-0.50
2019-02-26T00:39:09.686Z,-0.60
2019-02-26T00:41:40.351Z,-0.60
2019-02-26T00:44:09.938Z,-0.60
2019-02-26T00:46:39.611Z,-0.50
2019-02-26T00:49:09.105Z,-0.50
2019-02-26T00:51:39.823Z,-0.60
2019-02-26T00:54:09.793Z,-0.60
2019-02-26T00:56:41.004Z,-0.60
2019-02-26T00:59:10.588Z,-0.60
2019-02-26T01:01:44.015Z,-0.60
2019-02-26T01:04:11.293Z,-0.70
2019-02-26T01:06:40.785Z,-0.70
2019-02-26T01:09:11.868Z,-0.70
2019-02-26T01:18:57.566Z,-0.80
2019-02-26T01:21:29.120Z,-0.80
2019-02-26T01:23:59.592Z,-0.80
2019-02-26T01:26:29.353Z,-0.80
2019-02-26T01:29:00.880Z,-0.80
2019-02-26T01:31:31.627Z,-0.90
2019-02-26T01:34:01.110Z,-0.90
2019-02-26T01:36:30.556Z,-0.90
2019-02-26T01:39:00.061Z,-0.90
2019-02-26T01:41:29.536Z,-0.90
2019-02-26T01:43:59.125Z,-1.00
2019-02-26T01:46:29.996Z,-1.00
2019-02-26T01:48:59.907Z,-1.00
2019-02-26T01:51:30.837Z,-1.10
2019-02-26T01:54:00.324Z,-1.10
2019-02-26T01:56:29.820Z,-1.10
2019-02-26T01:59:02.156Z,-1.10
2019-02-26T02:01:30.454Z,-1.10
2019-02-26T02:03:59.930Z,-1.20
2019-02-26T02:06:30.362Z,-1.20
2019-02-26T02:09:00.510Z,-1.20
2019-02-26T02:11:31.218Z,-1.20
2019-02-26T02:14:05.746Z,-1.20
2019-02-26T02:16:33.623Z,-1.20
2019-02-26T02:19:03.179Z,-1.30
2019-02-26T02:21:35.522Z,-1.30
2019-02-26T02:24:05.759Z,-1.30
2019-02-26T02:26:35.906Z,-1.40
2019-02-26T02:29:05.403Z,-1.40
2019-02-26T02:31:37.612Z,-1.40
2019-02-26T02:34:06.077Z,-1.40
2019-02-26T02:36:35.582Z,-1.40
2019-02-26T02:39:10.323Z,-1.50
2019-02-26T02:41:39.372Z,-1.50
2019-02-26T02:44:12.340Z,-1.50
2019-02-26T02:46:42.490Z,-1.50
2019-02-26T02:49:13.273Z,-1.50
2019-02-26T02:51:42.357Z,-1.50
2019-02-26T02:54:13.046Z,-1.50
2019-02-26T02:56:44.389Z,-1.50
2019-02-26T02:59:14.541Z,-1.50
2019-02-26T03:01:45.773Z,-1.50
2019-02-26T03:04:19.619Z,-1.60
2019-02-26T03:06:47.314Z,-1.60
2019-02-26T03:09:17.740Z,-1.60
2019-02-26T03:11:49.712Z,-1.60
2019-02-26T03:14:19.036Z,-1.70
2019-02-26T03:16:50.834Z,-1.60
2019-02-26T03:19:19.657Z,-1.70
2019-02-26T03:21:49.665Z,-1.60
2019-02-26T03:24:22.758Z,-1.70
2019-02-26T03:26:51.584Z,-1.70
2019-02-26T03:29:21.099Z,-1.70
2019-02-26T03:31:54.659Z,-1.60
2019-02-26T03:34:25.297Z,-1.60
2019-02-26T03:36:52.829Z,-1.60
2019-02-26T03:39:22.315Z,-1.60
2019-02-26T03:41:53.609Z,-1.60
2019-02-26T03:44:22.913Z,-1.70
2019-02-26T03:46:52.447Z,-1.70
2019-02-26T03:49:26.358Z,-1.70
2019-02-26T03:51:53.104Z,-1.70
2019-02-26T03:54:22.572Z,-1.70
2019-02-26T03:56:52.100Z,-1.80
2019-02-26T03:59:21.572Z,-1.80
2019-02-26T04:01:51.057Z,-1.80
2019-02-26T04:04:22.624Z,-1.80
2019-02-26T04:06:51.708Z,-1.80
2019-02-26T04:09:22.007Z,-1.80
2019-02-26T04:11:55.521Z,-1.80
2019-02-26T04:14:27.732Z,-1.80
2019-02-26T04:16:58.674Z,-1.80
2019-02-26T04:19:27.325Z,-1.90
2019-02-26T04:22:30.617Z,-1.80
2019-02-26T04:25:06.398Z,-1.90
2019-02-26T04:28:18.858Z,-1.90
2019-02-26T04:31:29.269Z,-1.90
2019-02-26T04:34:40.995Z,-1.90
2019-02-26T04:38:03.546Z,-1.80
2019-02-26T04:40:48.501Z,-1.80
2019-02-26T04:43:57.559Z,-1.80
2019-02-26T04:47:07.635Z,-1.80
2019-02-26T04:49:42.107Z,-1.80
2019-02-26T04:52:10.983Z,-1.80
2019-02-26T04:54:39.706Z,-1.80
2019-02-26T04:57:09.209Z,-1.80
2019-02-26T04:59:41.178Z,-1.90
2019-02-26T05:02:09.848Z,-1.90
2019-02-26T05:04:40.075Z,-1.80
2019-02-26T05:07:13.375Z,-1.90
2019-02-26T05:09:41.796Z,-1.90
2019-02-26T05:12:11.266Z,-1.90
2019-02-26T05:14:40.764Z,-2.00
2019-02-26T05:17:10.225Z,-2.00
2019-02-26T05:19:42.433Z,-2.00
2019-02-26T05:22:10.841Z,-2.00
2019-02-26T05:24:42.388Z,-2.00
2019-02-26T05:27:15.492Z,-2.00
2019-02-26T05:29:49.179Z,-2.10
2019-02-26T05:32:21.251Z,-2.10
2019-02-26T05:34:50.917Z,-2.10
2019-02-26T05:37:20.473Z,-2.10
2019-02-26T05:39:51.790Z,-2.10
2019-02-26T05:42:22.133Z,-2.20
2019-02-26T05:44:54.106Z,-2.10
2019-02-26T05:47:24.059Z,-2.10
2019-02-26T05:49:54.318Z,-2.10
2019-02-26T05:52:25.005Z,-2.10
2019-02-26T05:54:55.019Z,-2.10
2019-02-26T05:57:27.713Z,-2.10
2019-02-26T05:59:55.707Z,-2.10
2019-02-26T06:02:25.208Z,-2.10
2019-02-26T06:04:55.423Z,-2.10
2019-02-26T06:07:27.654Z,-2.10
2019-02-26T06:09:57.240Z,-2.00
2019-02-26T06:12:27.853Z,-1.90
2019-02-26T06:15:04.678Z,-1.90
2019-02-26T06:17:40.569Z,-2.00
2019-02-26T06:20:15.671Z,-2.00
2019-02-26T06:22:45.735Z,-2.00
2019-02-26T06:25:20.652Z,-2.00
2019-02-26T06:27:47.695Z,-2.00
2019-02-26T06:30:17.867Z,-2.00
2019-02-26T06:32:47.755Z,-2.00
2019-02-26T06:35:19.364Z,-2.00
2019-02-26T06:37:48.486Z,-2.00
2019-02-26T06:40:18.362Z,-2.00
2019-02-26T06:42:47.873Z,-1.90
2019-02-26T06:45:17.370Z,-1.90
2019-02-26T06:47:48.623Z,-1.80
2019-02-26T06:50:18.898Z,-1.80
2019-02-26T06:52:50.606Z,-1.70
2019-02-26T06:55:19.791Z,-1.70
2019-02-26T06:57:50.893Z,-1.60
2019-02-26T07:00:23.769Z,-1.60
2019-02-26T07:02:51.600Z,-1.50
2019-02-26T07:05:23.890Z,-1.50
2019-02-26T07:07:54.182Z,-1.40
2019-02-26T07:10:26.111Z,-1.30
2019-02-26T07:12:54.632Z,-1.20
2019-02-26T07:15:24.221Z,-1.10
2019-02-26T07:17:53.771Z,-1.10
2019-02-26T07:20:23.412Z,-1.00
2019-02-26T07:22:52.816Z,-0.90
2019-02-26T07:25:22.383Z,-0.80
2019-02-26T07:27:53.696Z,-0.70
2019-02-26T07:30:23.037Z,-0.60
2019-02-26T07:32:52.589Z,-0.60
2019-02-26T07:35:22.127Z,-0.50
2019-02-26T07:37:52.370Z,-0.40
2019-02-26T07:40:22.786Z,-0.30
2019-02-26T07:42:52.297Z,-0.20
2019-02-26T07:45:22.904Z,0.00
2019-02-26T07:47:54.076Z,0.20
2019-02-26T07:50:24.089Z,0.30
2019-02-26T07:52:55.137Z,0.40
2019-02-26T07:55:24.792Z,0.70
2019-02-26T07:57:54.306Z,0.80
2019-02-26T08:00:24.279Z,0.90
2019-02-26T08:02:56.844Z,1.10
2019-02-26T08:05:28.319Z,1.20
2019-02-26T08:07:56.645Z,1.40
2019-02-26T08:10:26.141Z,1.60
2019-02-26T08:12:56.672Z,1.90
2019-02-26T08:15:27.839Z,2.00
2019-02-26T08:18:00.006Z,2.20
2019-02-26T08:20:30.459Z,2.40
2019-02-26T08:23:01.397Z,2.50
2019-02-26T08:25:30.862Z,2.70
2019-02-26T08:28:01.305Z,3.00
2019-02-26T08:30:30.917Z,3.20
2019-02-26T08:33:04.288Z,3.30
2019-02-26T08:35:33.180Z,3.40
2019-02-26T08:40:37.541Z,3.70
2019-02-26T08:43:07.029Z,3.90
2019-02-26T08:45:36.621Z,4.00
2019-02-26T08:48:06.082Z,4.20
2019-02-26T08:50:36.155Z,4.20
2019-02-26T08:53:07.144Z,4.30
2019-02-26T08:55:36.666Z,4.50
2019-02-26T08:58:07.761Z,4.60
2019-02-26T09:00:37.350Z,4.70
2019-02-26T09:03:08.832Z,4.80
2019-02-26T09:05:38.189Z,4.90
2019-02-26T09:08:08.475Z,4.90
2019-02-26T09:10:41.177Z,5.10
2019-02-26T09:13:11.444Z,5.30
2019-02-26T09:15:43.080Z,5.20
2019-02-26T09:18:12.309Z,5.40
2019-02-26T09:20:41.790Z,5.70
2019-02-26T09:23:16.379Z,6.00
2019-02-26T09:25:42.619Z,6.30
2019-02-26T09:28:12.147Z,6.60
2019-02-26T09:30:41.677Z,6.90
2019-02-26T09:33:11.268Z,7.20
2019-02-26T09:35:40.738Z,7.40
2019-02-26T09:38:12.218Z,7.40
2019-02-26T09:40:41.341Z,7.50
2019-02-26T09:43:12.923Z,7.50
2019-02-26T09:45:43.581Z,7.60
2019-02-26T09:48:15.258Z,7.80
2019-02-26T09:50:46.290Z,7.90
2019-02-26T09:53:15.416Z,8.00
2019-02-26T09:55:44.946Z,8.10
2019-02-26T09:58:15.869Z,8.20
2019-02-26T10:00:47.568Z,8.20
2019-02-26T10:03:16.701Z,8.30
2019-02-26T10:05:48.229Z,8.60
2019-02-26T10:08:19.794Z,8.70
2019-02-26T10:10:48.435Z,8.90
2019-02-26T10:13:18.709Z,9.00
2019-02-26T10:15:49.028Z,9.10
2019-02-26T10:18:18.541Z,9.10
2019-02-26T10:20:57.153Z,9.30
2019-02-26T10:23:28.519Z,9.30
2019-02-26T10:26:05.192Z,9.50
2019-02-26T10:28:37.300Z,9.60
2019-02-26T10:31:09.093Z,9.60
2019-02-26T10:33:40.196Z,9.70
2019-02-26T10:36:09.935Z,9.70
2019-02-26T10:38:39.105Z,9.70
2019-02-26T10:41:08.562Z,9.80
2019-02-26T10:43:39.985Z,9.90
2019-02-26T10:46:09.190Z,10.10
2019-02-26T10:48:41.045Z,10.20
2019-02-26T10:51:09.813Z,10.40
2019-02-26T10:53:39.290Z,10.60
2019-02-26T10:56:08.776Z,10.50
2019-02-26T10:58:38.303Z,10.50
2019-02-26T11:01:08.025Z,10.70
2019-02-26T11:03:40.917Z,10.90
2019-02-26T11:06:10.783Z,11.10
2019-02-26T11:08:39.808Z,11.30
2019-02-26T11:11:10.563Z,11.30
2019-02-26T11:13:43.501Z,11.40
2019-02-26T11:16:12.001Z,11.40
2019-02-26T11:18:44.919Z,11.60
2019-02-26T11:21:14.233Z,11.70
2019-02-26T11:23:44.529Z,11.90
2019-02-26T11:26:15.475Z,12.10
2019-02-26T11:28:47.872Z,12.20
2019-02-26T11:31:20.427Z,12.40
2019-02-26T11:33:48.562Z,12.50
2019-02-26T11:36:18.037Z,12.60
2019-02-26T11:38:47.542Z,12.70
2019-02-26T11:41:17.033Z,12.90
2019-02-26T11:43:46.500Z,13.00
2019-02-26T11:46:16.001Z,13.00
2019-02-26T11:48:47.496Z,13.00
2019-02-26T11:51:17.786Z,13.10
2019-02-26T11:53:47.740Z,13.20
2019-02-26T11:56:17.706Z,13.40
2019-02-26T11:58:48.393Z,13.60
2019-02-26T12:01:18.452Z,13.80
2019-02-26T12:03:47.954Z,13.80
2019-02-26T12:06:17.461Z,14.00
2019-02-26T12:08:47.339Z,14.10
2019-02-26T12:11:20.413Z,14.30
2019-02-26T12:13:50.197Z,14.50
2019-02-26T12:16:20.308Z,14.30
2019-02-26T12:18:49.816Z,14.70
2019-02-26T12:21:19.493Z,14.80
2019-02-26T12:23:48.952Z,14.70
2019-02-26T12:26:19.206Z,14.70
2019-02-26T12:28:49.600Z,15.00
2019-02-26T12:31:19.096Z,14.90
2019-02-26T12:33:48.560Z,15.20
2019-02-26T12:36:18.135Z,15.40
2019-02-26T12:38:50.135Z,15.40
2019-02-26T12:41:20.890Z,15.70
2019-02-26T12:43:49.892Z,16.10
2019-02-26T12:46:21.606Z,16.20
2019-02-26T12:48:50.524Z,16.30
2019-02-26T12:51:22.470Z,16.40
2019-02-26T12:53:51.131Z,16.30
2019-02-26T12:56:21.486Z,16.50
2019-02-26T12:58:54.583Z,16.60
2019-02-26T13:01:23.141Z,16.00
2019-02-26T13:03:54.947Z,16.00
2019-02-26T13:06:23.808Z,16.10
2019-02-26T13:08:53.293Z,16.10
2019-02-26T13:11:24.934Z,16.40
2019-02-26T13:13:53.893Z,16.50
2019-02-26T13:16:23.352Z,16.50
2019-02-26T13:18:58.550Z,16.60
2019-02-26T13:21:24.316Z,16.60
2019-02-26T13:23:58.517Z,16.90
2019-02-26T13:26:25.038Z,17.20
2019-02-26T13:28:56.282Z,17.20
2019-02-26T13:31:25.689Z,17.30
2019-02-26T13:33:55.250Z,17.50
2019-02-26T13:36:24.765Z,17.90
2019-02-26T13:38:55.905Z,18.30
2019-02-26T13:41:29.840Z,18.10
2019-02-26T13:43:56.555Z,17.70
2019-02-26T13:46:26.052Z,17.80
2019-02-26T13:48:55.526Z,17.90
2019-02-26T13:51:25.045Z,17.60
2019-02-26T13:53:54.521Z,17.50
2019-02-26T13:56:24.048Z,17.60
2019-02-26T13:58:53.548Z,17.20
2019-02-26T14:01:23.076Z,17.10
2019-02-26T14:03:52.538Z,16.90
2019-02-26T14:06:22.140Z,16.70
2019-02-26T14:08:52.103Z,16.60
2019-02-26T14:11:21.575Z,16.60
2019-02-26T14:13:51.189Z,16.50
2019-02-26T14:16:20.645Z,16.60
2019-02-26T14:18:50.108Z,16.90
2019-02-26T14:21:19.625Z,16.90
2019-02-26T14:23:49.121Z,16.90
2019-02-26T14:26:18.621Z,17.20
2019-02-26T14:28:48.077Z,17.60
2019-02-26T14:31:17.585Z,18.00
2019-02-26T14:33:47.050Z,18.40
2019-02-26T14:36:16.584Z,18.40
2019-02-26T14:38:46.174Z,18.60
2019-02-26T14:41:15.665Z,19.00
2019-02-26T14:43:45.252Z,19.40
2019-02-26T14:46:14.929Z,19.40
2019-02-26T14:48:44.359Z,19.40
2019-02-26T14:51:13.972Z,19.90
2019-02-26T14:53:43.500Z,19.30
2019-02-26T14:56:13.036Z,19.50
2019-02-26T14:58:42.500Z,19.60
2019-02-26T15:01:12.020Z,19.50
2019-02-26T15:03:41.544Z,19.60
2019-02-26T15:06:11.220Z,19.60
2019-02-26T15:08:41.355Z,19.50
2019-02-26T15:11:10.894Z,19.60
2019-02-26T15:13:40.358Z,19.90
2019-02-26T15:16:09.856Z,19.60
2019-02-26T15:18:39.317Z,19.40
2019-02-26T15:21:08.845Z,19.30
2019-02-26T15:23:38.317Z,19.40
2019-02-26T15:26:08.025Z,18.90
2019-02-26T15:28:37.491Z,19.00
2019-02-26T15:31:07.004Z,19.30
2019-02-26T15:33:36.607Z,19.60
2019-02-26T15:36:06.069Z,19.30
2019-02-26T15:38:35.574Z,19.40
2019-02-26T15:41:05.371Z,19.30
2019-02-26T15:43:34.912Z,19.40
2019-02-26T15:46:04.468Z,19.40
2019-02-26T15:48:36.488Z,19.20
2019-02-26T15:51:13.944Z,18.90
2019-02-26T15:53:36.189Z,18.50
2019-02-26T15:56:05.708Z,18.10
2019-02-26T15:58:35.440Z,17.70
2019-02-26T16:14:15.348Z,16.90
2019-02-26T16:16:44.888Z,16.70
2019-02-26T16:19:14.378Z,16.60
2019-02-26T16:21:43.867Z,16.40
2019-02-26T16:24:13.421Z,16.20
2019-02-26T16:26:42.913Z,16.10
2019-02-26T16:29:12.383Z,15.90
2019-02-26T16:31:41.904Z,15.90
2019-02-26T16:34:11.460Z,15.80
2019-02-26T16:36:41.155Z,15.70
2019-02-26T16:39:10.725Z,15.50
2019-02-26T16:41:40.184Z,15.20
2019-02-26T16:44:09.709Z,14.90
2019-02-26T16:46:39.586Z,14.70
2019-02-26T16:49:10.346Z,14.50
2019-02-26T16:51:39.806Z,14.20
2019-02-26T16:54:09.325Z,14.00
2019-02-26T16:56:38.990Z,13.70
2019-02-26T16:59:08.462Z,13.40
2019-02-26T17:01:38.497Z,13.20
2019-02-26T17:04:08.738Z,12.90
2019-02-26T17:06:38.413Z,12.70
2019-02-26T17:09:09.046Z,12.40
2019-02-26T17:11:38.548Z,12.20
2019-02-26T17:14:08.010Z,12.00
2019-02-26T17:16:37.486Z,11.80
2019-02-26T17:19:06.992Z,11.60
2019-02-26T17:21:36.470Z,11.40
2019-02-26T17:24:05.994Z,11.20
2019-02-26T17:26:35.480Z,11.10
2019-02-26T17:29:05.059Z,10.80
2019-02-26T17:31:34.533Z,10.70
2019-02-26T17:34:04.212Z,10.40
2019-02-26T17:36:35.483Z,10.30
2019-02-26T17:39:06.656Z,10.10
2019-02-26T17:41:36.158Z,9.90
2019-02-26T17:44:05.849Z,9.80
2019-02-26T17:46:35.427Z,9.60
2019-02-26T17:49:04.908Z,9.40
2019-02-26T17:51:34.386Z,9.30
2019-02-26T17:54:04.582Z,9.20
2019-02-26T17:56:34.235Z,9.00
2019-02-26T17:59:03.745Z,8.90
2019-02-26T18:01:33.208Z,8.80
2019-02-26T18:04:02.700Z,8.70
2019-02-26T18:06:32.192Z,8.60
2019-02-26T18:09:01.704Z,8.40
2019-02-26T18:11:31.210Z,8.30
2019-02-26T18:14:00.813Z,8.20
2019-02-26T18:16:31.770Z,8.10
2019-02-26T18:19:01.996Z,8.00
2019-02-26T18:21:31.483Z,7.90
2019-02-26T18:24:00.980Z,7.80
2019-02-26T18:26:30.470Z,7.60
2019-02-26T18:28:59.938Z,7.50
2019-02-26T18:31:31.260Z,7.40
2019-02-26T18:34:00.545Z,7.20
2019-02-26T18:36:30.020Z,7.20
2019-02-26T18:38:59.540Z,7.00
2019-02-26T18:41:30.461Z,6.90
2019-02-26T18:44:06.197Z,6.90
2019-02-26T18:46:35.947Z,6.80
2019-02-26T18:49:05.635Z,6.70
2019-02-26T18:51:36.376Z,6.60
2019-02-26T18:54:06.363Z,6.50
2019-02-26T18:56:38.677Z,6.40
2019-02-26T18:59:07.238Z,6.30
2019-02-26T19:01:36.773Z,6.20
2019-02-26T19:04:06.385Z,6.10
2019-02-26T19:06:36.013Z,6.10
2019-02-26T19:09:07.089Z,6.00
2019-02-26T19:11:36.833Z,6.00
2019-02-26T19:14:08.897Z,5.90
2019-02-26T19:16:37.628Z,6.00
2019-02-26T19:19:09.103Z,6.00
2019-02-26T19:21:38.613Z,6.00
2019-02-26T19:24:08.131Z,6.10
2019-02-26T19:26:37.753Z,6.20
2019-02-26T19:29:07.303Z,6.00
2019-02-26T19:31:36.861Z,6.10
2019-02-26T19:34:06.541Z,6.00
2019-02-26T19:36:36.314Z,5.80
2019-02-26T19:39:07.549Z,5.70
2019-02-26T19:41:39.531Z,5.60
2019-02-26T19:44:09.028Z,5.50
2019-02-26T19:46:38.863Z,5.40
2019-02-26T19:49:08.385Z,5.30
2019-02-26T19:51:38.032Z,5.10
2019-02-26T19:54:07.622Z,5.10
2019-02-26T19:56:37.082Z,5.00
2019-02-26T19:59:06.794Z,4.90
2019-02-26T20:01:36.336Z,4.90
2019-02-26T20:04:06.024Z,4.80
2019-02-26T20:06:35.409Z,4.80
2019-02-26T20:09:07.448Z,4.80
2019-02-26T20:11:36.920Z,4.70
2019-02-26T20:14:06.387Z,4.70
2019-02-26T20:16:35.878Z,4.60
2019-02-26T20:19:05.338Z,4.60
2019-02-26T20:21:34.844Z,4.70
2019-02-26T20:24:04.294Z,4.60
2019-02-26T20:26:33.757Z,4.60
2019-02-26T20:29:03.280Z,4.50
2019-02-26T20:31:32.748Z,4.40
2019-02-26T20:34:04.134Z,4.40
2019-02-26T20:36:33.424Z,4.40
2019-02-26T20:39:02.936Z,4.30
2019-02-26T20:41:32.409Z,4.30
2019-02-26T20:44:01.913Z,4.20
2019-02-26T20:46:31.374Z,4.10
2019-02-26T20:49:01.017Z,4.00
2019-02-26T20:51:30.480Z,4.00
2019-02-26T20:53:59.977Z,4.00
2019-02-26T20:56:30.976Z,3.90
2019-02-26T20:59:00.588Z,3.80
2019-02-26T21:01:32.529Z,3.70
2019-02-26T21:04:01.436Z,3.70
2019-02-26T21:06:30.870Z,3.70
2019-02-26T21:09:02.424Z,3.60
2019-02-26T21:11:31.585Z,3.60
2019-02-26T21:14:01.805Z,3.50
2019-02-26T21:16:31.274Z,3.50
2019-02-26T21:19:02.873Z,3.50
2019-02-26T21:21:31.886Z,3.40
2019-02-26T21:24:01.453Z,3.40
2019-02-26T21:26:30.930Z,3.40
2019-02-26T21:29:00.427Z,3.40
2019-02-26T21:31:29.897Z,3.50
2019-02-26T21:34:03.725Z,3.50
2019-02-26T21:36:30.596Z,3.50
2019-02-26T21:39:00.084Z,3.60
2019-02-26T21:41:29.600Z,3.60
2019-02-26T21:43:59.109Z,3.60
2019-02-26T21:46:28.603Z,3.70
2019-02-26T21:48:58.080Z,3.70
2019-02-26T21:51:27.558Z,3.60
2019-02-26T21:53:57.811Z,3.60
2019-02-26T21:56:27.308Z,3.70
2019-02-26T21:58:59.408Z,3.70
2019-02-26T22:01:27.968Z,3.80
2019-02-26T22:03:58.472Z,3.70
2019-02-26T22:06:28.575Z,3.70
2019-02-26T22:08:58.041Z,3.70
2019-02-26T22:11:27.575Z,3.70
2019-02-26T22:13:57.081Z,3.70
2019-02-26T22:16:26.565Z,3.60
2019-02-26T22:18:56.040Z,3.50
2019-02-26T22:21:53.960Z,3.50
2019-02-26T22:24:23.418Z,3.50
2019-02-26T22:26:52.936Z,3.30
2019-02-26T22:29:22.396Z,3.30
2019-02-26T22:31:51.852Z,3.30
2019-02-26T22:34:21.365Z,3.20
2019-02-26T22:36:50.882Z,3.30
2019-02-26T22:39:22.685Z,3.20
2019-02-26T22:41:51.488Z,3.20
2019-02-26T22:44:21.501Z,3.30
2019-02-26T22:46:51.548Z,3.20
2019-02-26T22:49:21.377Z,3.20
2019-02-26T22:51:50.836Z,3.30
2019-02-26T22:54:20.345Z,3.40
2019-02-26T22:56:49.818Z,3.40
2019-02-26T22:59:19.307Z,3.40
2019-02-26T23:01:49.161Z,3.40
2019-02-26T23:04:19.669Z,3.40
2019-02-26T23:06:49.959Z,3.40
2019-02-26T23:09:21.381Z,3.50
2019-02-26T23:11:51.172Z,3.50
2019-02-26T23:14:21.131Z,3.60
2019-02-26T23:16:52.075Z,3.50
2019-02-26T23:20:03.657Z,3.50
2019-02-26T23:22:33.184Z,3.50
2019-02-26T23:25:02.679Z,3.60
2019-02-26T23:27:32.156Z,3.50
2019-02-26T23:30:01.813Z,3.50
2019-02-26T23:32:31.397Z,3.50
2019-02-26T23:35:05.560Z,3.50
2019-02-26T23:37:35.341Z,3.50
2019-02-26T23:40:05.582Z,3.50
2019-02-26T23:42:38.790Z,3.50
2019-02-26T23:45:06.942Z,3.50
2019-02-26T23:47:36.392Z,3.40
2019-02-26T23:50:06.157Z,3.40
2019-02-26T23:52:35.708Z,3.30
2019-02-26T23:55:05.336Z,3.30
2019-02-26T23:57:34.824Z,3.20
